OEA218 VTSP-VHHH
Flight info
| Callsign | OEA218 |
|---|---|
| Flight time | 2h 58m |
| Altitude | 39000 |
| Route | EMRIT1A EMRIT Y99 NONEL Y98 SURMA W42 TOPER A1 SANOT Y15 GUROK A202 VILAO/K0909F390 A202 ASSAD/K0913S1190 A202 SAMAS/K0870S0630 A202 SIKOU/N0493F390 V571 CANTO |
| Aircraft | B742/H-SDFHIRWXY/L |
Departure
| Time | 2026-05-06 14:07 |
|---|---|
| Airport | Phuket International Airport (VTSP) |
Arrival
| Time | 2026-05-06 17:06 |
|---|---|
| Airport | Hong Kong International Airport (VHHH) |
| Time | Latitude | Longitude | Altitude | Speed | Heading |
|---|---|---|---|---|---|
| 2026-05-06 13:15 | 8.10584 | 98.30456 | 38 ft | 0 kts | 104° |
| 2026-05-06 13:53 | 8.10585 | 98.30454 | 38 ft | 1 kts | 104° |
| 2026-05-06 13:53 | 8.10589 | 98.30440 | 37 ft | 2 kts | 104° |
| 2026-05-06 13:54 | 8.10592 | 98.30425 | 36 ft | 2 kts | 104° |
| 2026-05-06 13:54 | 8.10595 | 98.30416 | 36 ft | 2 kts | 102° |
| 2026-05-06 13:54 | 8.10595 | 98.30401 | 36 ft | 2 kts | 77° |
| 2026-05-06 13:54 | 8.10590 | 98.30387 | 35 ft | 2 kts | 60° |
| 2026-05-06 13:55 | 8.10581 | 98.30375 | 35 ft | 2 kts | 41° |
| 2026-05-06 13:55 | 8.10568 | 98.30366 | 35 ft | 2 kts | 23° |
| 2026-05-06 13:55 | 8.10561 | 98.30363 | 36 ft | 1 kts | 13° |
| 2026-05-06 13:55 | 8.10558 | 98.30363 | 36 ft | 0 kts | 14° |
| 2026-05-06 14:01 | 8.10577 | 98.30368 | 35 ft | 5 kts | 14° |
| 2026-05-06 14:02 | 8.10623 | 98.30379 | 35 ft | 5 kts | 15° |
| 2026-05-06 14:02 | 8.10660 | 98.30391 | 35 ft | 5 kts | 17° |
| 2026-05-06 14:02 | 8.10698 | 98.30402 | 36 ft | 5 kts | 15° |
| 2026-05-06 14:02 | 8.10740 | 98.30413 | 36 ft | 7 kts | 14° |
| 2026-05-06 14:03 | 8.10802 | 98.30429 | 35 ft | 11 kts | 14° |
| 2026-05-06 14:03 | 8.10888 | 98.30451 | 34 ft | 13 kts | 14° |
| 2026-05-06 14:03 | 8.10976 | 98.30475 | 35 ft | 9 kts | 13° |
| 2026-05-06 14:03 | 8.11023 | 98.30475 | 35 ft | 7 kts | 330° |
| 2026-05-06 14:04 | 8.11039 | 98.30421 | 33 ft | 10 kts | 267° |
| 2026-05-06 14:04 | 8.11073 | 98.30357 | 31 ft | 12 kts | 341° |
| 2026-05-06 14:04 | 8.11150 | 98.30345 | 30 ft | 9 kts | 352° |
| 2026-05-06 14:04 | 8.11191 | 98.30354 | 30 ft | 6 kts | 68° |
| 2026-05-06 14:05 | 8.11196 | 98.30377 | 30 ft | 0 kts | 82° |
| 2026-05-06 14:06 | 8.11198 | 98.30386 | 31 ft | 9 kts | 82° |
| 2026-05-06 14:06 | 8.11229 | 98.30695 | 37 ft | 79 kts | 84° |
| 2026-05-06 14:07 | 8.11301 | 98.31483 | 58 ft | 142 kts | 84° |
| 2026-05-06 14:07 | 8.11410 | 98.32568 | 391 ft | 161 kts | 84° |
| 2026-05-06 14:07 | 8.11533 | 98.33693 | 964 ft | 166 kts | 83° |
| 2026-05-06 14:07 | 8.11664 | 98.34847 | 1592 ft | 168 kts | 81° |
| 2026-05-06 14:08 | 8.11836 | 98.36067 | 1933 ft | 187 kts | 82° |
| 2026-05-06 14:08 | 8.11993 | 98.37411 | 2102 ft | 201 kts | 83° |
| 2026-05-06 14:08 | 8.12141 | 98.38879 | 2276 ft | 217 kts | 84° |
| 2026-05-06 14:08 | 8.12289 | 98.40456 | 2449 ft | 236 kts | 84° |
| 2026-05-06 14:09 | 8.12442 | 98.42173 | 2626 ft | 257 kts | 84° |
| 2026-05-06 14:09 | 8.12604 | 98.44016 | 3120 ft | 264 kts | 84° |
| 2026-05-06 14:09 | 8.12761 | 98.45827 | 3887 ft | 260 kts | 84° |
| 2026-05-06 14:09 | 8.12918 | 98.47636 | 4480 ft | 262 kts | 84° |
| 2026-05-06 14:10 | 8.13076 | 98.49460 | 5137 ft | 261 kts | 84° |
| 2026-05-06 14:10 | 8.13236 | 98.51292 | 5692 ft | 264 kts | 85° |
| 2026-05-06 14:10 | 8.13397 | 98.53150 | 6294 ft | 265 kts | 85° |
| 2026-05-06 14:10 | 8.13557 | 98.54999 | 6828 ft | 268 kts | 85° |
| 2026-05-06 14:11 | 8.13718 | 98.56864 | 7343 ft | 271 kts | 85° |
| 2026-05-06 14:11 | 8.13883 | 98.58766 | 7903 ft | 272 kts | 85° |
| 2026-05-06 14:11 | 8.14043 | 98.60677 | 8430 ft | 274 kts | 87° |
| 2026-05-06 14:11 | 8.13891 | 98.62589 | 8873 ft | 279 kts | 99° |
| 2026-05-06 14:12 | 8.13540 | 98.64500 | 9447 ft | 279 kts | 99° |
| 2026-05-06 14:12 | 8.13179 | 98.66434 | 9929 ft | 283 kts | 99° |
| 2026-05-06 14:12 | 8.12823 | 98.68382 | 10439 ft | 286 kts | 99° |
| 2026-05-06 14:12 | 8.12466 | 98.70377 | 10899 ft | 291 kts | 99° |
| 2026-05-06 14:13 | 8.12106 | 98.72417 | 11290 ft | 299 kts | 99° |
| 2026-05-06 14:13 | 8.11740 | 98.74497 | 11678 ft | 306 kts | 99° |
| 2026-05-06 14:13 | 8.11361 | 98.76653 | 12072 ft | 314 kts | 99° |
| 2026-05-06 14:13 | 8.10980 | 98.78819 | 12479 ft | 321 kts | 99° |
| 2026-05-06 14:14 | 8.10613 | 98.81037 | 13011 ft | 322 kts | 95° |
| 2026-05-06 14:14 | 8.10539 | 98.83305 | 13512 ft | 325 kts | 89° |
| 2026-05-06 14:14 | 8.10582 | 98.85584 | 14019 ft | 328 kts | 88° |
| 2026-05-06 14:14 | 8.10629 | 98.87904 | 14527 ft | 330 kts | 89° |
| 2026-05-06 14:15 | 8.10665 | 98.90235 | 15002 ft | 334 kts | 89° |
| 2026-05-06 14:15 | 8.10694 | 98.92558 | 15465 ft | 337 kts | 89° |
| 2026-05-06 14:15 | 8.10725 | 98.94936 | 15932 ft | 340 kts | 87° |
| 2026-05-06 14:15 | 8.11152 | 98.97302 | 16332 ft | 344 kts | 70° |
| 2026-05-06 14:16 | 8.12259 | 98.99447 | 16740 ft | 349 kts | 54° |
| 2026-05-06 14:16 | 8.13850 | 99.01271 | 17208 ft | 351 kts | 46° |
| 2026-05-06 14:16 | 8.15587 | 99.03023 | 17675 ft | 353 kts | 46° |
| 2026-05-06 14:16 | 8.17321 | 99.04781 | 18129 ft | 355 kts | 46° |
| 2026-05-06 14:17 | 8.19043 | 99.06567 | 18575 ft | 357 kts | 47° |
| 2026-05-06 14:17 | 8.20764 | 99.08378 | 19005 ft | 360 kts | 47° |
| 2026-05-06 14:17 | 8.22516 | 99.10236 | 19423 ft | 364 kts | 47° |
| 2026-05-06 14:17 | 8.24251 | 99.12079 | 19869 ft | 366 kts | 47° |
| 2026-05-06 14:18 | 8.26012 | 99.13951 | 20290 ft | 369 kts | 47° |
| 2026-05-06 14:18 | 8.27791 | 99.15844 | 20697 ft | 372 kts | 47° |
| 2026-05-06 14:18 | 8.29579 | 99.17745 | 21105 ft | 374 kts | 47° |
| 2026-05-06 14:18 | 8.31376 | 99.19656 | 21552 ft | 375 kts | 47° |
| 2026-05-06 14:19 | 8.33162 | 99.21556 | 21901 ft | 379 kts | 47° |
| 2026-05-06 14:19 | 8.34996 | 99.23507 | 22298 ft | 381 kts | 47° |
| 2026-05-06 14:19 | 8.36818 | 99.25444 | 22672 ft | 383 kts | 47° |
| 2026-05-06 14:19 | 8.38658 | 99.27400 | 23029 ft | 386 kts | 47° |
| 2026-05-06 14:20 | 8.40514 | 99.29376 | 23381 ft | 388 kts | 47° |
| 2026-05-06 14:20 | 8.42369 | 99.31339 | 23748 ft | 390 kts | 45° |
| 2026-05-06 14:20 | 8.44534 | 99.33048 | 24052 ft | 394 kts | 30° |
| 2026-05-06 14:20 | 8.47051 | 99.34122 | 24409 ft | 396 kts | 15° |
| 2026-05-06 14:21 | 8.49771 | 99.34563 | 24741 ft | 399 kts | 5° |
| 2026-05-06 14:21 | 8.52577 | 99.34687 | 25088 ft | 402 kts | 2° |
| 2026-05-06 14:21 | 8.55404 | 99.34755 | 25402 ft | 404 kts | 2° |
| 2026-05-06 14:21 | 8.58219 | 99.34841 | 25755 ft | 406 kts | 3° |
| 2026-05-06 14:22 | 8.61052 | 99.34952 | 26096 ft | 407 kts | 4° |
| 2026-05-06 14:22 | 8.63888 | 99.35080 | 26404 ft | 410 kts | 4° |
| 2026-05-06 14:22 | 8.66742 | 99.35217 | 26720 ft | 411 kts | 4° |
| 2026-05-06 14:22 | 8.69615 | 99.35359 | 27018 ft | 414 kts | 4° |
| 2026-05-06 14:23 | 8.72515 | 99.35503 | 27323 ft | 415 kts | 4° |
| 2026-05-06 14:23 | 8.75397 | 99.35648 | 27626 ft | 417 kts | 4° |
| 2026-05-06 14:23 | 8.78346 | 99.35795 | 27925 ft | 418 kts | 4° |
| 2026-05-06 14:23 | 8.81265 | 99.35941 | 28193 ft | 421 kts | 4° |
| 2026-05-06 14:24 | 8.84190 | 99.36087 | 28464 ft | 422 kts | 4° |
| 2026-05-06 14:24 | 8.87139 | 99.36235 | 28757 ft | 424 kts | 4° |
| 2026-05-06 14:24 | 8.90077 | 99.36382 | 29005 ft | 426 kts | 4° |
| 2026-05-06 14:24 | 8.93055 | 99.36530 | 29258 ft | 428 kts | 4° |
| 2026-05-06 14:25 | 8.96065 | 99.36681 | 29509 ft | 430 kts | 4° |
| 2026-05-06 14:25 | 8.99079 | 99.36832 | 29747 ft | 433 kts | 4° |
| 2026-05-06 14:25 | 9.02075 | 99.36981 | 29975 ft | 435 kts | 4° |
| 2026-05-06 14:25 | 9.05139 | 99.37134 | 30215 ft | 437 kts | 4° |
| 2026-05-06 14:26 | 9.08172 | 99.37286 | 30445 ft | 439 kts | 4° |
| 2026-05-06 14:26 | 9.11274 | 99.37441 | 30667 ft | 442 kts | 4° |
| 2026-05-06 14:26 | 9.14366 | 99.37596 | 30896 ft | 444 kts | 4° |
| 2026-05-06 14:26 | 9.17482 | 99.37753 | 31133 ft | 446 kts | 4° |
| 2026-05-06 14:27 | 9.20638 | 99.37910 | 31368 ft | 448 kts | 4° |
| 2026-05-06 14:27 | 9.23742 | 99.38127 | 31575 ft | 448 kts | 10° |
| 2026-05-06 14:27 | 9.26815 | 99.38811 | 31771 ft | 449 kts | 17° |
| 2026-05-06 14:27 | 9.29800 | 99.39709 | 31999 ft | 450 kts | 19° |
| 2026-05-06 14:28 | 9.32807 | 99.40676 | 32219 ft | 452 kts | 19° |
| 2026-05-06 14:28 | 9.35830 | 99.41653 | 32443 ft | 454 kts | 19° |
| 2026-05-06 14:28 | 9.38829 | 99.42614 | 32675 ft | 455 kts | 19° |
| 2026-05-06 14:28 | 9.41867 | 99.43576 | 32919 ft | 457 kts | 19° |
| 2026-05-06 14:29 | 9.44920 | 99.44535 | 33162 ft | 459 kts | 19° |
| 2026-05-06 14:29 | 9.47994 | 99.45496 | 33396 ft | 460 kts | 18° |
| 2026-05-06 14:29 | 9.51064 | 99.46452 | 33620 ft | 462 kts | 19° |
| 2026-05-06 14:29 | 9.54151 | 99.47414 | 33840 ft | 463 kts | 18° |
| 2026-05-06 14:30 | 9.57232 | 99.48372 | 34045 ft | 465 kts | 18° |
| 2026-05-06 14:30 | 9.60324 | 99.49334 | 34262 ft | 466 kts | 18° |
| 2026-05-06 14:30 | 9.63465 | 99.50311 | 34481 ft | 468 kts | 18° |
| 2026-05-06 14:30 | 9.66552 | 99.51272 | 34693 ft | 469 kts | 18° |
| 2026-05-06 14:31 | 9.69682 | 99.52247 | 34891 ft | 470 kts | 18° |
| 2026-05-06 14:31 | 9.72821 | 99.53223 | 35088 ft | 471 kts | 18° |
| 2026-05-06 14:31 | 9.75986 | 99.54209 | 35288 ft | 472 kts | 18° |
| 2026-05-06 14:31 | 9.79110 | 99.55182 | 35479 ft | 473 kts | 18° |
| 2026-05-06 14:32 | 9.82291 | 99.56173 | 35666 ft | 474 kts | 18° |
| 2026-05-06 14:32 | 9.85474 | 99.57165 | 35855 ft | 475 kts | 18° |
| 2026-05-06 14:32 | 9.88630 | 99.58148 | 36035 ft | 476 kts | 18° |
| 2026-05-06 14:32 | 9.91801 | 99.59136 | 36212 ft | 477 kts | 18° |
| 2026-05-06 14:33 | 9.94999 | 99.60133 | 36365 ft | 479 kts | 18° |
| 2026-05-06 14:33 | 9.98165 | 99.61121 | 36486 ft | 481 kts | 18° |
| 2026-05-06 14:33 | 10.01384 | 99.62125 | 36617 ft | 482 kts | 18° |
| 2026-05-06 14:33 | 10.04611 | 99.63132 | 36754 ft | 484 kts | 18° |
| 2026-05-06 14:34 | 10.07844 | 99.64140 | 36889 ft | 485 kts | 18° |
| 2026-05-06 14:34 | 10.11080 | 99.65151 | 37039 ft | 486 kts | 18° |
| 2026-05-06 14:34 | 10.14290 | 99.66157 | 37187 ft | 487 kts | 18° |
| 2026-05-06 14:34 | 10.17556 | 99.67183 | 37334 ft | 488 kts | 18° |
| 2026-05-06 14:35 | 10.20825 | 99.68209 | 37477 ft | 489 kts | 18° |
| 2026-05-06 14:35 | 10.24083 | 99.69230 | 37610 ft | 490 kts | 18° |
| 2026-05-06 14:35 | 10.27317 | 99.70242 | 37738 ft | 491 kts | 18° |
| 2026-05-06 14:35 | 10.30606 | 99.71270 | 37860 ft | 492 kts | 18° |
| 2026-05-06 14:36 | 10.33896 | 99.72298 | 37966 ft | 493 kts | 18° |
| 2026-05-06 14:36 | 10.37190 | 99.73329 | 38071 ft | 494 kts | 18° |
| 2026-05-06 14:36 | 10.43768 | 99.75387 | 38256 ft | 497 kts | 18° |
| 2026-05-06 14:37 | 10.50427 | 99.77470 | 38459 ft | 499 kts | 18° |
| 2026-05-06 14:37 | 10.53754 | 99.78511 | 38585 ft | 499 kts | 18° |
| 2026-05-06 14:37 | 10.57101 | 99.79559 | 38691 ft | 500 kts | 18° |
| 2026-05-06 14:38 | 10.63759 | 99.81644 | 38848 ft | 501 kts | 18° |
| 2026-05-06 14:38 | 10.70402 | 99.83726 | 38977 ft | 501 kts | 18° |
| 2026-05-06 14:39 | 10.77109 | 99.85828 | 39040 ft | 502 kts | 18° |
| 2026-05-06 14:39 | 10.83786 | 99.87923 | 39079 ft | 503 kts | 17° |
| 2026-05-06 14:40 | 10.90345 | 99.90364 | 39029 ft | 503 kts | 27° |
| 2026-05-06 14:40 | 10.96518 | 99.93780 | 39075 ft | 503 kts | 30° |
| 2026-05-06 14:41 | 11.02582 | 99.97291 | 39143 ft | 503 kts | 30° |
| 2026-05-06 14:41 | 11.08724 | 100.00789 | 39200 ft | 502 kts | 29° |
| 2026-05-06 14:42 | 11.14848 | 100.04244 | 39199 ft | 503 kts | 29° |
| 2026-05-06 14:42 | 11.20984 | 100.07700 | 39167 ft | 504 kts | 29° |
| 2026-05-06 14:43 | 11.27107 | 100.11148 | 39199 ft | 504 kts | 29° |
| 2026-05-06 14:43 | 11.33264 | 100.14617 | 39258 ft | 503 kts | 29° |
| 2026-05-06 14:44 | 11.39406 | 100.18080 | 39187 ft | 505 kts | 29° |
| 2026-05-06 14:45 | 11.48649 | 100.23295 | 39079 ft | 507 kts | 29° |
| 2026-05-06 14:45 | 11.54798 | 100.26766 | 39172 ft | 507 kts | 29° |
| 2026-05-06 14:46 | 11.60983 | 100.30260 | 39227 ft | 506 kts | 28° |
| 2026-05-06 14:46 | 11.67162 | 100.33753 | 39228 ft | 507 kts | 28° |
| 2026-05-06 14:47 | 11.73356 | 100.37257 | 39262 ft | 507 kts | 28° |
| 2026-05-06 14:47 | 11.79515 | 100.40743 | 39267 ft | 506 kts | 28° |
| 2026-05-06 14:48 | 11.85628 | 100.44353 | 39219 ft | 505 kts | 36° |
| 2026-05-06 14:48 | 11.90927 | 100.49030 | 39053 ft | 506 kts | 43° |
| 2026-05-06 14:49 | 11.96030 | 100.54041 | 38887 ft | 507 kts | 43° |
| 2026-05-06 14:49 | 12.00958 | 100.59107 | 38879 ft | 505 kts | 50° |
| 2026-05-06 14:50 | 12.05189 | 100.64873 | 38873 ft | 505 kts | 54° |
| 2026-05-06 14:50 | 12.09241 | 100.70728 | 38873 ft | 505 kts | 54° |
| 2026-05-06 14:51 | 12.13323 | 100.76547 | 38874 ft | 505 kts | 54° |
| 2026-05-06 14:51 | 12.17464 | 100.82378 | 38873 ft | 506 kts | 53° |
| 2026-05-06 14:52 | 12.21596 | 100.88180 | 38874 ft | 506 kts | 54° |
| 2026-05-06 14:52 | 12.25749 | 100.94011 | 38874 ft | 507 kts | 54° |
| 2026-05-06 14:53 | 12.29885 | 100.99822 | 38874 ft | 508 kts | 54° |
| 2026-05-06 14:53 | 12.34034 | 101.05656 | 38874 ft | 508 kts | 54° |
| 2026-05-06 14:54 | 12.38202 | 101.11522 | 38874 ft | 508 kts | 54° |
| 2026-05-06 14:54 | 12.42347 | 101.17361 | 38870 ft | 508 kts | 53° |
| 2026-05-06 14:55 | 12.46503 | 101.23219 | 38866 ft | 508 kts | 53° |
| 2026-05-06 14:55 | 12.50648 | 101.29063 | 38864 ft | 509 kts | 54° |
| 2026-05-06 14:56 | 12.54814 | 101.34942 | 38867 ft | 509 kts | 54° |
| 2026-05-06 14:56 | 12.58976 | 101.40819 | 38866 ft | 509 kts | 54° |
| 2026-05-06 14:57 | 12.63121 | 101.46677 | 38872 ft | 509 kts | 54° |
| 2026-05-06 14:57 | 12.67292 | 101.52583 | 38878 ft | 509 kts | 54° |
| 2026-05-06 14:58 | 12.71432 | 101.58449 | 38878 ft | 509 kts | 54° |
| 2026-05-06 14:58 | 12.75562 | 101.64303 | 38876 ft | 509 kts | 53° |
| 2026-05-06 14:58 | 12.77874 | 101.67054 | 38875 ft | 507 kts | 42° |
| 2026-05-06 14:59 | 12.80639 | 101.69296 | 38877 ft | 506 kts | 33° |
| 2026-05-06 14:59 | 12.86702 | 101.72975 | 38875 ft | 507 kts | 28° |
| 2026-05-06 15:00 | 12.92899 | 101.76457 | 38879 ft | 508 kts | 28° |
| 2026-05-06 15:00 | 12.99091 | 101.80003 | 38898 ft | 508 kts | 29° |
| 2026-05-06 15:01 | 13.05244 | 101.83532 | 38906 ft | 508 kts | 29° |
| 2026-05-06 15:01 | 13.11420 | 101.87106 | 38901 ft | 508 kts | 29° |
| 2026-05-06 15:02 | 13.17567 | 101.90680 | 38906 ft | 507 kts | 29° |
| 2026-05-06 15:02 | 13.23710 | 101.94252 | 38905 ft | 507 kts | 29° |
| 2026-05-06 15:03 | 13.29867 | 101.97819 | 38905 ft | 508 kts | 29° |
| 2026-05-06 15:03 | 13.36031 | 102.01388 | 38902 ft | 509 kts | 29° |
| 2026-05-06 15:04 | 13.42212 | 102.04969 | 38905 ft | 509 kts | 29° |
| 2026-05-06 15:04 | 13.48397 | 102.08556 | 38900 ft | 509 kts | 29° |
| 2026-05-06 15:05 | 13.54583 | 102.12145 | 38897 ft | 509 kts | 29° |
| 2026-05-06 15:05 | 13.60758 | 102.15731 | 38894 ft | 510 kts | 29° |
| 2026-05-06 15:06 | 13.66955 | 102.19332 | 38889 ft | 510 kts | 28° |
| 2026-05-06 15:06 | 13.73116 | 102.22914 | 38887 ft | 510 kts | 28° |
| 2026-05-06 15:07 | 13.79329 | 102.26533 | 38890 ft | 510 kts | 29° |
| 2026-05-06 15:07 | 13.85501 | 102.30133 | 38902 ft | 510 kts | 28° |
| 2026-05-06 15:08 | 13.91666 | 102.33733 | 38911 ft | 510 kts | 28° |
| 2026-05-06 15:08 | 13.97870 | 102.37360 | 38917 ft | 510 kts | 28° |
| 2026-05-06 15:09 | 14.04013 | 102.40952 | 38919 ft | 508 kts | 28° |
| 2026-05-06 15:09 | 14.10168 | 102.44553 | 38917 ft | 507 kts | 28° |
| 2026-05-06 15:10 | 14.16338 | 102.48167 | 38914 ft | 507 kts | 28° |
| 2026-05-06 15:10 | 14.22439 | 102.51743 | 38906 ft | 506 kts | 28° |
| 2026-05-06 15:11 | 14.28568 | 102.55337 | 38903 ft | 506 kts | 28° |
| 2026-05-06 15:11 | 14.34722 | 102.58946 | 38903 ft | 506 kts | 29° |
| 2026-05-06 15:12 | 14.40860 | 102.62558 | 38896 ft | 507 kts | 29° |
| 2026-05-06 15:12 | 14.46945 | 102.66165 | 38897 ft | 506 kts | 29° |
| 2026-05-06 15:13 | 14.53061 | 102.69812 | 38891 ft | 503 kts | 29° |
| 2026-05-06 15:13 | 14.59081 | 102.73435 | 38871 ft | 499 kts | 33° |
| 2026-05-06 15:13 | 14.61747 | 102.75684 | 38873 ft | 498 kts | 45° |
| 2026-05-06 15:14 | 14.63912 | 102.78449 | 38871 ft | 498 kts | 57° |
| 2026-05-06 15:14 | 14.66774 | 102.84969 | 38870 ft | 500 kts | 71° |
| 2026-05-06 15:15 | 14.68964 | 102.91782 | 38866 ft | 503 kts | 72° |
| 2026-05-06 15:15 | 14.71170 | 102.98631 | 38867 ft | 505 kts | 71° |
| 2026-05-06 15:16 | 14.73451 | 103.05512 | 38862 ft | 506 kts | 71° |
| 2026-05-06 15:16 | 14.76146 | 103.12178 | 38868 ft | 503 kts | 57° |
| 2026-05-06 15:17 | 14.80548 | 103.17712 | 38867 ft | 501 kts | 44° |
| 2026-05-06 15:17 | 14.85722 | 103.22577 | 38868 ft | 500 kts | 40° |
| 2026-05-06 15:18 | 14.90985 | 103.27238 | 38868 ft | 498 kts | 40° |
| 2026-05-06 15:18 | 14.96245 | 103.31905 | 38865 ft | 500 kts | 40° |
| 2026-05-06 15:19 | 15.01524 | 103.36619 | 38866 ft | 502 kts | 40° |
| 2026-05-06 15:19 | 15.06802 | 103.41345 | 38869 ft | 503 kts | 40° |
| 2026-05-06 15:20 | 15.12112 | 103.46105 | 38864 ft | 503 kts | 40° |
| 2026-05-06 15:20 | 15.17391 | 103.50841 | 38865 ft | 503 kts | 40° |
| 2026-05-06 15:21 | 15.22697 | 103.55605 | 38862 ft | 503 kts | 40° |
| 2026-05-06 15:21 | 15.27999 | 103.60365 | 38860 ft | 504 kts | 40° |
| 2026-05-06 15:22 | 15.33315 | 103.65142 | 38860 ft | 505 kts | 41° |
| 2026-05-06 15:22 | 15.38583 | 103.69901 | 38861 ft | 505 kts | 41° |
| 2026-05-06 15:23 | 15.43895 | 103.74700 | 38859 ft | 506 kts | 40° |
| 2026-05-06 15:23 | 15.49186 | 103.79470 | 38861 ft | 505 kts | 40° |
| 2026-05-06 15:24 | 15.54476 | 103.84238 | 38864 ft | 504 kts | 40° |
| 2026-05-06 15:24 | 15.59778 | 103.89018 | 38857 ft | 505 kts | 40° |
| 2026-05-06 15:25 | 15.65110 | 103.93829 | 38849 ft | 506 kts | 40° |
| 2026-05-06 15:25 | 15.70414 | 103.98620 | 38843 ft | 506 kts | 40° |
| 2026-05-06 15:26 | 15.75706 | 104.03402 | 38845 ft | 506 kts | 40° |
| 2026-05-06 15:26 | 15.81037 | 104.08224 | 38842 ft | 504 kts | 40° |
| 2026-05-06 15:27 | 15.86306 | 104.12993 | 38843 ft | 504 kts | 40° |
| 2026-05-06 15:27 | 15.91583 | 104.17772 | 38844 ft | 504 kts | 40° |
| 2026-05-06 15:28 | 15.96868 | 104.22562 | 38842 ft | 504 kts | 40° |
| 2026-05-06 15:28 | 16.02153 | 104.27355 | 38845 ft | 505 kts | 40° |
| 2026-05-06 15:29 | 16.07450 | 104.32163 | 38850 ft | 506 kts | 40° |
| 2026-05-06 15:29 | 16.12757 | 104.36984 | 38858 ft | 506 kts | 40° |
| 2026-05-06 15:30 | 16.18039 | 104.41788 | 38866 ft | 505 kts | 40° |
| 2026-05-06 15:30 | 16.23327 | 104.46600 | 38865 ft | 505 kts | 40° |
| 2026-05-06 15:31 | 16.28639 | 104.51436 | 38871 ft | 505 kts | 40° |
| 2026-05-06 15:31 | 16.33913 | 104.56240 | 38867 ft | 506 kts | 40° |
| 2026-05-06 15:32 | 16.41877 | 104.63502 | 38869 ft | 507 kts | 40° |
| 2026-05-06 15:32 | 16.47160 | 104.68337 | 38865 ft | 506 kts | 40° |
| 2026-05-06 15:33 | 16.52449 | 104.73194 | 38861 ft | 506 kts | 40° |
| 2026-05-06 15:33 | 16.57360 | 104.78417 | 38869 ft | 506 kts | 53° |
| 2026-05-06 15:34 | 16.61245 | 104.84508 | 38860 ft | 508 kts | 57° |
| 2026-05-06 15:34 | 16.64984 | 104.90748 | 38863 ft | 509 kts | 57° |
| 2026-05-06 15:35 | 16.68767 | 104.96973 | 38862 ft | 509 kts | 57° |
| 2026-05-06 15:35 | 16.72572 | 105.03166 | 38866 ft | 509 kts | 57° |
| 2026-05-06 15:36 | 16.76384 | 105.09360 | 38867 ft | 509 kts | 57° |
| 2026-05-06 15:36 | 16.80193 | 105.15551 | 38871 ft | 508 kts | 57° |
| 2026-05-06 15:37 | 16.84015 | 105.21773 | 38874 ft | 508 kts | 57° |
| 2026-05-06 15:37 | 16.87829 | 105.27992 | 38883 ft | 508 kts | 57° |
| 2026-05-06 15:38 | 16.91620 | 105.34186 | 38876 ft | 507 kts | 57° |
| 2026-05-06 15:38 | 16.95413 | 105.40388 | 38877 ft | 507 kts | 57° |
| 2026-05-06 15:39 | 16.99196 | 105.46581 | 38888 ft | 507 kts | 57° |
| 2026-05-06 15:39 | 17.02976 | 105.52773 | 38886 ft | 507 kts | 57° |
| 2026-05-06 15:40 | 17.06766 | 105.58985 | 38893 ft | 507 kts | 57° |
| 2026-05-06 15:40 | 17.10541 | 105.65180 | 38893 ft | 507 kts | 57° |
| 2026-05-06 15:41 | 17.14316 | 105.71420 | 38896 ft | 506 kts | 57° |
| 2026-05-06 15:41 | 17.18070 | 105.77625 | 38899 ft | 506 kts | 57° |
| 2026-05-06 15:42 | 17.21845 | 105.83845 | 38899 ft | 506 kts | 57° |
| 2026-05-06 15:42 | 17.25612 | 105.90050 | 38883 ft | 505 kts | 57° |
| 2026-05-06 15:43 | 17.29369 | 105.96243 | 38892 ft | 506 kts | 57° |
| 2026-05-06 15:43 | 17.33136 | 106.02458 | 38901 ft | 507 kts | 57° |
| 2026-05-06 15:44 | 17.36899 | 106.08669 | 38930 ft | 508 kts | 57° |
| 2026-05-06 15:44 | 17.40717 | 106.14877 | 38944 ft | 507 kts | 56° |
| 2026-05-06 15:45 | 17.44552 | 106.21077 | 38940 ft | 507 kts | 56° |
| 2026-05-06 15:45 | 17.48350 | 106.27235 | 38929 ft | 507 kts | 56° |
| 2026-05-06 15:46 | 17.52191 | 106.33472 | 38905 ft | 507 kts | 56° |
| 2026-05-06 15:46 | 17.55993 | 106.39654 | 38889 ft | 508 kts | 56° |
| 2026-05-06 15:47 | 17.59832 | 106.45901 | 38879 ft | 508 kts | 56° |
| 2026-05-06 15:47 | 17.63633 | 106.52094 | 38876 ft | 508 kts | 56° |
| 2026-05-06 15:48 | 17.67453 | 106.58321 | 38870 ft | 508 kts | 56° |
| 2026-05-06 15:48 | 17.71275 | 106.64572 | 38874 ft | 509 kts | 56° |
| 2026-05-06 15:49 | 17.75046 | 106.70789 | 38873 ft | 509 kts | 57° |
| 2026-05-06 15:49 | 17.78848 | 106.77065 | 38872 ft | 508 kts | 57° |
| 2026-05-06 15:50 | 17.82624 | 106.83278 | 38874 ft | 508 kts | 57° |
| 2026-05-06 15:50 | 17.86429 | 106.89535 | 38871 ft | 508 kts | 57° |
| 2026-05-06 15:51 | 17.90247 | 106.95806 | 38874 ft | 509 kts | 56° |
| 2026-05-06 15:51 | 17.94067 | 107.02052 | 38873 ft | 509 kts | 56° |
| 2026-05-06 15:52 | 17.97861 | 107.08257 | 38872 ft | 508 kts | 56° |
| 2026-05-06 15:52 | 18.01673 | 107.14503 | 38874 ft | 509 kts | 56° |
| 2026-05-06 15:53 | 18.05509 | 107.20795 | 38868 ft | 509 kts | 56° |
| 2026-05-06 15:53 | 18.09311 | 107.27042 | 38862 ft | 509 kts | 56° |
| 2026-05-06 15:54 | 18.13110 | 107.33298 | 38863 ft | 510 kts | 56° |
| 2026-05-06 15:54 | 18.16909 | 107.39564 | 38863 ft | 510 kts | 56° |
| 2026-05-06 15:55 | 18.20726 | 107.45858 | 38861 ft | 510 kts | 56° |
| 2026-05-06 15:55 | 18.24533 | 107.52143 | 38863 ft | 510 kts | 56° |
| 2026-05-06 15:56 | 18.28342 | 107.58437 | 38866 ft | 510 kts | 56° |
| 2026-05-06 15:56 | 18.32137 | 107.64715 | 38871 ft | 510 kts | 56° |
| 2026-05-06 15:57 | 18.36135 | 107.70818 | 38865 ft | 508 kts | 50° |
| 2026-05-06 15:57 | 18.40681 | 107.76567 | 38863 ft | 508 kts | 48° |
| 2026-05-06 15:58 | 18.45219 | 107.82214 | 38860 ft | 508 kts | 49° |
| 2026-05-06 15:58 | 18.49754 | 107.87933 | 38864 ft | 508 kts | 49° |
| 2026-05-06 15:59 | 18.54281 | 107.93684 | 38863 ft | 509 kts | 49° |
| 2026-05-06 15:59 | 18.58799 | 107.99435 | 38869 ft | 509 kts | 49° |
| 2026-05-06 16:00 | 18.63291 | 108.05158 | 38873 ft | 509 kts | 49° |
| 2026-05-06 16:00 | 18.67803 | 108.10912 | 38874 ft | 509 kts | 49° |
| 2026-05-06 16:01 | 18.72294 | 108.16642 | 38875 ft | 508 kts | 49° |
| 2026-05-06 16:01 | 18.76798 | 108.22395 | 38875 ft | 508 kts | 49° |
| 2026-05-06 16:02 | 18.81283 | 108.28130 | 38877 ft | 508 kts | 49° |
| 2026-05-06 16:02 | 18.85800 | 108.33909 | 38879 ft | 509 kts | 49° |
| 2026-05-06 16:03 | 18.90279 | 108.39647 | 38887 ft | 509 kts | 49° |
| 2026-05-06 16:03 | 18.94806 | 108.45450 | 38893 ft | 509 kts | 49° |
| 2026-05-06 16:04 | 18.99290 | 108.51204 | 38887 ft | 510 kts | 49° |
| 2026-05-06 16:04 | 19.03800 | 108.56998 | 38888 ft | 510 kts | 49° |
| 2026-05-06 16:05 | 19.08304 | 108.62788 | 38887 ft | 509 kts | 49° |
| 2026-05-06 16:05 | 19.12779 | 108.68565 | 38888 ft | 510 kts | 49° |
| 2026-05-06 16:06 | 19.17253 | 108.74369 | 38890 ft | 509 kts | 49° |
| 2026-05-06 16:06 | 19.21756 | 108.80192 | 38890 ft | 509 kts | 49° |
| 2026-05-06 16:07 | 19.26234 | 108.85973 | 38893 ft | 510 kts | 49° |
| 2026-05-06 16:07 | 19.30725 | 108.91771 | 38894 ft | 511 kts | 49° |
| 2026-05-06 16:08 | 19.35246 | 108.97614 | 38893 ft | 512 kts | 49° |
| 2026-05-06 16:08 | 19.39750 | 109.03442 | 38898 ft | 511 kts | 49° |
| 2026-05-06 16:09 | 19.44221 | 109.09232 | 38903 ft | 510 kts | 49° |
| 2026-05-06 16:09 | 19.48724 | 109.15070 | 38904 ft | 510 kts | 49° |
| 2026-05-06 16:10 | 19.53194 | 109.20877 | 38899 ft | 510 kts | 49° |
| 2026-05-06 16:10 | 19.57642 | 109.26714 | 38903 ft | 510 kts | 49° |
| 2026-05-06 16:11 | 19.62109 | 109.32591 | 38901 ft | 511 kts | 49° |
| 2026-05-06 16:11 | 19.66564 | 109.38455 | 38896 ft | 512 kts | 49° |
| 2026-05-06 16:12 | 19.71039 | 109.44347 | 38893 ft | 511 kts | 49° |
| 2026-05-06 16:12 | 19.75481 | 109.50202 | 38891 ft | 511 kts | 49° |
| 2026-05-06 16:13 | 19.79939 | 109.56084 | 38886 ft | 512 kts | 49° |
| 2026-05-06 16:13 | 19.84401 | 109.61977 | 38885 ft | 512 kts | 49° |
| 2026-05-06 16:14 | 19.88835 | 109.67847 | 38887 ft | 511 kts | 49° |
| 2026-05-06 16:14 | 19.93262 | 109.73748 | 38883 ft | 511 kts | 49° |
| 2026-05-06 16:15 | 19.97702 | 109.79648 | 38883 ft | 512 kts | 49° |
| 2026-05-06 16:15 | 20.02172 | 109.85577 | 38875 ft | 513 kts | 49° |
| 2026-05-06 16:16 | 20.06636 | 109.91502 | 38877 ft | 514 kts | 49° |
| 2026-05-06 16:16 | 20.11075 | 109.97399 | 38879 ft | 513 kts | 49° |
| 2026-05-06 16:17 | 20.15532 | 110.03330 | 38883 ft | 512 kts | 49° |
| 2026-05-06 16:17 | 20.19977 | 110.09250 | 38884 ft | 512 kts | 49° |
| 2026-05-06 16:18 | 20.24410 | 110.15157 | 38894 ft | 512 kts | 49° |
| 2026-05-06 16:18 | 20.28847 | 110.21075 | 38896 ft | 511 kts | 49° |
| 2026-05-06 16:19 | 20.33297 | 110.26957 | 38900 ft | 511 kts | 48° |
| 2026-05-06 16:19 | 20.37789 | 110.32808 | 38904 ft | 511 kts | 48° |
| 2026-05-06 16:20 | 20.42283 | 110.38672 | 38907 ft | 511 kts | 48° |
| 2026-05-06 16:20 | 20.46780 | 110.44553 | 38901 ft | 511 kts | 48° |
| 2026-05-06 16:21 | 20.50885 | 110.50711 | 38903 ft | 514 kts | 62° |
| 2026-05-06 16:21 | 20.53557 | 110.57825 | 38904 ft | 518 kts | 69° |
| 2026-05-06 16:22 | 20.55882 | 110.65067 | 38907 ft | 518 kts | 69° |
| 2026-05-06 16:22 | 20.58237 | 110.72325 | 38904 ft | 518 kts | 69° |
| 2026-05-06 16:23 | 20.60640 | 110.79569 | 38904 ft | 518 kts | 68° |
| 2026-05-06 16:23 | 20.63059 | 110.86774 | 38903 ft | 518 kts | 68° |
| 2026-05-06 16:24 | 20.65480 | 110.93962 | 38907 ft | 518 kts | 68° |
| 2026-05-06 16:24 | 20.67940 | 111.01213 | 38910 ft | 518 kts | 68° |
| 2026-05-06 16:25 | 20.70378 | 111.08411 | 38914 ft | 518 kts | 68° |
| 2026-05-06 16:25 | 20.72829 | 111.15667 | 38913 ft | 519 kts | 68° |
| 2026-05-06 16:26 | 20.75257 | 111.22868 | 38911 ft | 518 kts | 68° |
| 2026-05-06 16:26 | 20.77699 | 111.30120 | 38909 ft | 518 kts | 68° |
| 2026-05-06 16:27 | 20.80115 | 111.37305 | 38911 ft | 518 kts | 68° |
| 2026-05-06 16:27 | 20.82544 | 111.44544 | 38912 ft | 518 kts | 68° |
| 2026-05-06 16:28 | 20.84968 | 111.51766 | 38914 ft | 518 kts | 68° |
| 2026-05-06 16:28 | 20.87416 | 111.59000 | 38917 ft | 518 kts | 68° |
| 2026-05-06 16:29 | 20.89872 | 111.66251 | 38918 ft | 518 kts | 68° |
| 2026-05-06 16:29 | 20.92279 | 111.73457 | 38923 ft | 517 kts | 68° |
| 2026-05-06 16:30 | 20.94301 | 111.79504 | 38928 ft | 517 kts | 68° |
| 2026-05-06 16:30 | 20.97131 | 111.87928 | 38931 ft | 518 kts | 68° |
| 2026-05-06 16:31 | 20.99572 | 111.95190 | 38933 ft | 519 kts | 68° |
| 2026-05-06 16:31 | 21.02001 | 112.02432 | 38933 ft | 518 kts | 68° |
| 2026-05-06 16:32 | 21.04427 | 112.09671 | 38931 ft | 519 kts | 68° |
| 2026-05-06 16:32 | 21.06857 | 112.16936 | 38935 ft | 519 kts | 68° |
| 2026-05-06 16:33 | 21.09275 | 112.24178 | 38934 ft | 519 kts | 68° |
| 2026-05-06 16:34 | 21.12907 | 112.35085 | 38934 ft | 519 kts | 68° |
| 2026-05-06 16:34 | 21.15318 | 112.42339 | 38929 ft | 519 kts | 68° |
| 2026-05-06 16:35 | 21.17737 | 112.49625 | 38926 ft | 519 kts | 68° |
| 2026-05-06 16:35 | 21.20150 | 112.56903 | 38933 ft | 520 kts | 68° |
| 2026-05-06 16:36 | 21.22565 | 112.64198 | 38937 ft | 522 kts | 68° |
| 2026-05-06 16:36 | 21.24961 | 112.71516 | 38930 ft | 521 kts | 69° |
| 2026-05-06 16:37 | 21.27354 | 112.78842 | 38933 ft | 521 kts | 68° |
| 2026-05-06 16:37 | 21.29755 | 112.86153 | 38934 ft | 522 kts | 68° |
| 2026-05-06 16:38 | 21.32158 | 112.93463 | 38931 ft | 521 kts | 68° |
| 2026-05-06 16:38 | 21.34554 | 113.00758 | 38928 ft | 521 kts | 68° |
| 2026-05-06 16:39 | 21.36948 | 113.08058 | 38933 ft | 521 kts | 68° |
| 2026-05-06 16:39 | 21.39345 | 113.15380 | 38932 ft | 521 kts | 68° |
| 2026-05-06 16:40 | 21.41731 | 113.22681 | 38937 ft | 521 kts | 68° |
| 2026-05-06 16:40 | 21.44127 | 113.30023 | 38938 ft | 522 kts | 68° |
| 2026-05-06 16:41 | 21.46528 | 113.37398 | 38936 ft | 522 kts | 68° |
| 2026-05-06 16:41 | 21.49529 | 113.44367 | 38945 ft | 517 kts | 56° |
| 2026-05-06 16:42 | 21.53637 | 113.50726 | 38949 ft | 515 kts | 49° |
| 2026-05-06 16:42 | 21.58031 | 113.56747 | 38947 ft | 514 kts | 48° |
| 2026-05-06 16:43 | 21.62454 | 113.62749 | 38946 ft | 513 kts | 48° |
| 2026-05-06 16:43 | 21.66865 | 113.68803 | 38866 ft | 509 kts | 49° |
| 2026-05-06 16:43 | 21.69010 | 113.71778 | 38225 ft | 504 kts | 49° |
| 2026-05-06 16:44 | 21.71145 | 113.74738 | 37152 ft | 497 kts | 49° |
| 2026-05-06 16:44 | 21.73245 | 113.77643 | 36022 ft | 489 kts | 49° |
| 2026-05-06 16:44 | 21.75317 | 113.80484 | 34935 ft | 481 kts | 46° |
| 2026-05-06 16:44 | 21.77571 | 113.83052 | 33830 ft | 471 kts | 40° |
| 2026-05-06 16:45 | 21.80090 | 113.85191 | 32713 ft | 458 kts | 27° |
| 2026-05-06 16:45 | 21.82886 | 113.86624 | 31794 ft | 443 kts | 14° |
| 2026-05-06 16:45 | 21.85877 | 113.87322 | 30875 ft | 429 kts | 1° |
| 2026-05-06 16:45 | 21.88781 | 113.87244 | 29984 ft | 417 kts | 347° |
| 2026-05-06 16:46 | 21.91551 | 113.86417 | 29087 ft | 406 kts | 334° |
| 2026-05-06 16:46 | 21.93931 | 113.84943 | 28187 ft | 398 kts | 321° |
| 2026-05-06 16:46 | 21.95895 | 113.82869 | 27184 ft | 395 kts | 306° |
| 2026-05-06 16:46 | 21.97275 | 113.80351 | 26200 ft | 391 kts | 291° |
| 2026-05-06 16:47 | 21.97989 | 113.77550 | 25260 ft | 387 kts | 277° |
| 2026-05-06 16:47 | 21.97994 | 113.74719 | 24380 ft | 383 kts | 262° |
| 2026-05-06 16:47 | 21.97300 | 113.71982 | 23528 ft | 379 kts | 246° |
| 2026-05-06 16:47 | 21.95968 | 113.69576 | 22714 ft | 375 kts | 231° |
| 2026-05-06 16:48 | 21.94170 | 113.67722 | 21961 ft | 371 kts | 217° |
| 2026-05-06 16:48 | 21.91833 | 113.66384 | 21134 ft | 370 kts | 201° |
| 2026-05-06 16:48 | 21.89317 | 113.65816 | 20326 ft | 370 kts | 185° |
| 2026-05-06 16:48 | 21.86760 | 113.66013 | 19535 ft | 370 kts | 169° |
| 2026-05-06 16:49 | 21.84354 | 113.66953 | 18756 ft | 370 kts | 153° |
| 2026-05-06 16:49 | 21.82295 | 113.68538 | 17983 ft | 369 kts | 140° |
| 2026-05-06 16:49 | 21.80406 | 113.70371 | 17239 ft | 365 kts | 140° |
| 2026-05-06 16:49 | 21.78548 | 113.72201 | 16491 ft | 361 kts | 140° |
| 2026-05-06 16:50 | 21.76697 | 113.74023 | 15729 ft | 357 kts | 140° |
| 2026-05-06 16:50 | 21.74886 | 113.75796 | 14993 ft | 353 kts | 140° |
| 2026-05-06 16:50 | 21.73079 | 113.77557 | 14260 ft | 349 kts | 140° |
| 2026-05-06 16:50 | 21.71296 | 113.79286 | 13539 ft | 345 kts | 140° |
| 2026-05-06 16:51 | 21.69506 | 113.81011 | 12817 ft | 341 kts | 140° |
| 2026-05-06 16:51 | 21.67763 | 113.82683 | 12112 ft | 337 kts | 140° |
| 2026-05-06 16:51 | 21.66034 | 113.84337 | 11413 ft | 333 kts | 140° |
| 2026-05-06 16:51 | 21.64335 | 113.85981 | 10709 ft | 329 kts | 135° |
| 2026-05-06 16:52 | 21.63003 | 113.87978 | 9983 ft | 327 kts | 116° |
| 2026-05-06 16:52 | 21.62329 | 113.90250 | 9292 ft | 324 kts | 99° |
| 2026-05-06 16:52 | 21.62109 | 113.92632 | 8888 ft | 309 kts | 91° |
| 2026-05-06 16:52 | 21.62428 | 113.94834 | 8573 ft | 300 kts | 67° |
| 2026-05-06 16:53 | 21.63623 | 113.96628 | 8147 ft | 300 kts | 39° |
| 2026-05-06 16:53 | 21.65469 | 113.97608 | 7785 ft | 296 kts | 10° |
| 2026-05-06 16:53 | 21.67505 | 113.97601 | 7404 ft | 293 kts | 351° |
| 2026-05-06 16:53 | 21.69509 | 113.97182 | 7060 ft | 292 kts | 344° |
| 2026-05-06 16:54 | 21.71457 | 113.96498 | 6724 ft | 290 kts | 338° |
| 2026-05-06 16:54 | 21.73311 | 113.95686 | 6397 ft | 289 kts | 336° |
| 2026-05-06 16:54 | 21.75146 | 113.94821 | 6072 ft | 288 kts | 335° |
| 2026-05-06 16:54 | 21.76968 | 113.93943 | 5752 ft | 286 kts | 335° |
| 2026-05-06 16:55 | 21.78790 | 113.93062 | 5427 ft | 286 kts | 335° |
| 2026-05-06 16:55 | 21.80608 | 113.92181 | 5106 ft | 285 kts | 335° |
| 2026-05-06 16:55 | 21.82412 | 113.91309 | 4781 ft | 284 kts | 335° |
| 2026-05-06 16:55 | 21.84218 | 113.90434 | 4465 ft | 283 kts | 336° |
| 2026-05-06 16:56 | 21.86013 | 113.89565 | 4147 ft | 282 kts | 336° |
| 2026-05-06 16:56 | 21.87783 | 113.88708 | 4002 ft | 274 kts | 336° |
| 2026-05-06 16:56 | 21.89493 | 113.87879 | 3964 ft | 267 kts | 336° |
| 2026-05-06 16:56 | 21.91242 | 113.87032 | 3961 ft | 278 kts | 336° |
| 2026-05-06 16:57 | 21.92988 | 113.86186 | 3957 ft | 276 kts | 336° |
| 2026-05-06 16:57 | 21.94753 | 113.85331 | 3958 ft | 277 kts | 336° |
| 2026-05-06 16:57 | 21.96535 | 113.84468 | 3958 ft | 278 kts | 336° |
| 2026-05-06 16:57 | 21.98300 | 113.83611 | 3958 ft | 277 kts | 336° |
| 2026-05-06 16:58 | 22.00042 | 113.82766 | 3959 ft | 276 kts | 336° |
| 2026-05-06 16:58 | 22.01802 | 113.81912 | 3959 ft | 276 kts | 336° |
| 2026-05-06 16:58 | 22.03567 | 113.81055 | 3965 ft | 277 kts | 336° |
| 2026-05-06 16:58 | 22.05323 | 113.80203 | 3967 ft | 277 kts | 336° |
| 2026-05-06 16:59 | 22.07088 | 113.79345 | 3968 ft | 277 kts | 336° |
| 2026-05-06 16:59 | 22.08877 | 113.78476 | 3969 ft | 277 kts | 336° |
| 2026-05-06 16:59 | 22.10623 | 113.77627 | 3969 ft | 278 kts | 336° |
| 2026-05-06 16:59 | 22.12413 | 113.76739 | 3814 ft | 279 kts | 335° |
| 2026-05-06 17:00 | 22.14143 | 113.75874 | 3601 ft | 273 kts | 335° |
| 2026-05-06 17:00 | 22.15855 | 113.75019 | 3383 ft | 267 kts | 335° |
| 2026-05-06 17:00 | 22.17546 | 113.74175 | 3161 ft | 262 kts | 335° |
| 2026-05-06 17:00 | 22.19172 | 113.73363 | 2951 ft | 253 kts | 336° |
| 2026-05-06 17:01 | 22.20808 | 113.72801 | 2722 ft | 241 kts | 0° |
| 2026-05-06 17:01 | 22.22366 | 113.73197 | 2528 ft | 226 kts | 28° |
| 2026-05-06 17:01 | 22.23720 | 113.74013 | 2307 ft | 219 kts | 34° |
| 2026-05-06 17:01 | 22.25002 | 113.74870 | 2085 ft | 213 kts | 35° |
| 2026-05-06 17:02 | 22.26213 | 113.75763 | 1854 ft | 205 kts | 47° |
| 2026-05-06 17:02 | 22.26896 | 113.77022 | 1723 ft | 187 kts | 70° |
| 2026-05-06 17:02 | 22.27355 | 113.78296 | 1689 ft | 180 kts | 72° |
| 2026-05-06 17:02 | 22.27769 | 113.79525 | 1685 ft | 164 kts | 73° |
| 2026-05-06 17:03 | 22.28138 | 113.80648 | 1683 ft | 161 kts | 73° |
| 2026-05-06 17:03 | 22.28507 | 113.81783 | 1587 ft | 151 kts | 73° |
| 2026-05-06 17:03 | 22.28845 | 113.82825 | 1340 ft | 142 kts | 73° |
| 2026-05-06 17:03 | 22.29158 | 113.83795 | 1143 ft | 133 kts | 73° |
| 2026-05-06 17:04 | 22.29459 | 113.84731 | 1005 ft | 133 kts | 73° |
| 2026-05-06 17:04 | 22.29765 | 113.85680 | 845 ft | 132 kts | 73° |
| 2026-05-06 17:04 | 22.30069 | 113.86623 | 671 ft | 134 kts | 72° |
| 2026-05-06 17:04 | 22.30376 | 113.87573 | 523 ft | 134 kts | 73° |
| 2026-05-06 17:05 | 22.30695 | 113.88510 | 338 ft | 133 kts | 73° |
| 2026-05-06 17:05 | 22.30989 | 113.89455 | 137 ft | 133 kts | 73° |
| 2026-05-06 17:05 | 22.31283 | 113.90395 | 37 ft | 118 kts | 71° |
| 2026-05-06 17:05 | 22.31497 | 113.91056 | 37 ft | 69 kts | 72° |
| 2026-05-06 17:06 | 22.31606 | 113.91399 | 37 ft | 33 kts | 71° |
| 2026-05-06 17:06 | 22.31658 | 113.91615 | 37 ft | 23 kts | 92° |
| 2026-05-06 17:06 | 22.31638 | 113.91768 | 37 ft | 10 kts | 101° |
| 2026-05-06 17:06 | 22.31599 | 113.91827 | 37 ft | 10 kts | 153° |
| 2026-05-06 17:07 | 22.31530 | 113.91856 | 37 ft | 10 kts | 158° |
| 2026-05-06 17:07 | 22.31458 | 113.91884 | 37 ft | 11 kts | 163° |
| 2026-05-06 17:07 | 22.31378 | 113.91913 | 37 ft | 13 kts | 161° |
| 2026-05-06 17:07 | 22.31280 | 113.91949 | 37 ft | 16 kts | 161° |
| 2026-05-06 17:08 | 22.31167 | 113.91991 | 37 ft | 17 kts | 160° |
| 2026-05-06 17:08 | 22.31042 | 113.92035 | 37 ft | 19 kts | 162° |
| 2026-05-06 17:08 | 22.30907 | 113.92087 | 37 ft | 21 kts | 160° |
| 2026-05-06 17:08 | 22.30815 | 113.92124 | 37 ft | 10 kts | 144° |
| 2026-05-06 17:09 | 22.30812 | 113.92198 | 37 ft | 11 kts | 71° |
| 2026-05-06 17:09 | 22.30840 | 113.92287 | 37 ft | 13 kts | 72° |
| 2026-05-06 17:09 | 22.30896 | 113.92358 | 37 ft | 13 kts | 28° |
| 2026-05-06 17:09 | 22.30987 | 113.92406 | 37 ft | 15 kts | 25° |
| 2026-05-06 17:10 | 22.31083 | 113.92455 | 37 ft | 8 kts | 25° |
| 2026-05-06 17:10 | 22.31104 | 113.92484 | 37 ft | 5 kts | 99° |
| 2026-05-06 17:10 | 22.31087 | 113.92531 | 37 ft | 7 kts | 116° |
| 2026-05-06 17:10 | 22.31076 | 113.92555 | 37 ft | 1 kts | 117° |
| 2026-05-06 17:11 | 22.31073 | 113.92561 | 37 ft | 0 kts | 116° |